Matamoros, México

2:52 PM CDT en Septiembre 19, 2014 (GMT -0500)
Brownsville-South Padre I International | Change Station
CLOSE
Current Station
Aeropuerto
Location: Brownsville,
Altura: 20 ft
Estaciones meteorológicas cercanas

Alt 20 ft 25.91 °N, 97.42 °W | Updated 59 minutes ago

Scattered Clouds
Nubes dispersas
92 ° F
Sensación térmica 104 ° F
N
9
Viento Variable Viento desde Sur

Hoy
Alta -- | Baja -- ° F
--% Posibilidad de precipitaciones
Ayer
Alta -- | Baja -- ° F
Precip. -- pul
7:17 AM 7:29 PM
Creciente menguante, 17% visible
Presión 29.81 pul
Visibilidad 10.0 Millas
Nubes Baja 3800 ft
Nubes dispersas 4500 ft
Índice de calor 104 ° F
Punto de rocío 76 ° F
Humedad 59%
Precipitaciones 0.00 pul
Espesor de la nieve No disponible.
UV 8 de una escala de 12
Polen No disponible.
Calidad del aire No disponible.
Flu Activity No disponible.
METAR KBRO 191853Z 19008KT 10SM FEW038 SCT045 33/24 A2981 RMK AO2 SLP092 T03330244

More Conditions Fewer Conditions

Presión 29.81 pul
Visibilidad 10.0 Millas
Nubes Baja 3800 ft
Nubes dispersas 4500 ft
Índice de calor 104 ° F
Punto de rocío 76 ° F
Humedad 59%
Precipitaciones 0.00 pul
Espesor de la nieve No disponible.
UV 8 de una escala de 12
Polen No disponible.
Calidad del aire No disponible.
Flu Activity No disponible.
METAR KBRO 191853Z 19008KT 10SM FEW038 SCT045 33/24 A2981 RMK AO2 SLP092 T03330244

More Conditions Fewer Conditions

10-Day Weather Forecast

Almanac

Astronomía

Sep. 19, 2014 Salida Puesta
Hora real 7:17 AM CDT 7:29 PM CDT
Crepúsculo civil 6:54 AM CDT 7:52 PM CDT
Crepúsculo náutico 6:27 AM CDT 8:19 PM CDT
Crepúsculo astronómico 6:00 AM CDT 8:46 PM CDT
Luna 3:23 AM CDT 4:41 PM CDT
Horas de luz 12h 58m
Horas de luz
12h 12m
Tomorrow will be 1m 30s shorter.
Creciente menguante, 17% of the Moon is Illuminated
Hoy
Creciente menguante
Sep 24
Nueva
Oct 1
Cuarto creciente
Oct 8
Luna llena
Oct 15
Cuarto menguante

Extremos de hoy

Máximos del país Bajas del país

Community

WunderPhotos

Upload Photos

1,754,687 ¡fotos cargadas!

WunderBlogs® & News

By Dr. Jeff Masters
Director of Meteorology, Weather Underground
By Kari Strenfel
Meteorologist, Weather Underground
By Christopher C. Burt
Weather Historian, Weather Underground
September 19, 2014
September 19, 2014
September 19, 2014

Nearby

Calidad del aire

Not available.

Grosos de nieve

Not available.

Actividad de terremotos

Ciudad Distance Mag. Tiempo y dato
No hay informes recientes de la actividad sísmica.
Magnitud mínima muestra es 2,5.

Temperaturas de aguas costeras

Lugar Temperatura
Sin partes meteorológicos de las estaciones

Estaciones meteorológicas cercanas